Time;durP1;ratioP1;P1;durP2;ratioP2;P2;SDS_P1;SDS_P2;PMS_P1;PMS_P2;Temp;Humidity;BMP_temperature;BMP_pressure;BME280_temperature;BME280_humidity;BME280_pressure;Samples;Min_cycle;Max_cycle;Signal;HPM_P1;HPM_P2
2021/12/22 00:02:20;;;;;;;23.65;11.68;;;28.70;87.00;;;;;;5057194;28;20340;-40
2021/12/22 00:04:49;;;;;;;23.27;11.27;;;28.60;86.70;;;;;;5055741;28;20009;-44
2021/12/22 00:07:16;;;;;;;24.38;11.45;;;28.60;87.00;;;;;;5058062;28;20170;-43
2021/12/22 00:09:43;;;;;;;16.73;11.13;;;28.60;86.80;;;;;;5057890;28;20032;-45
2021/12/22 00:12:11;;;;;;;22.63;11.90;;;28.60;86.70;;;;;;5062505;28;20028;-42
2021/12/22 00:14:38;;;;;;;19.13;11.15;;;28.60;86.80;;;;;;5066324;28;20329;-48
2021/12/22 00:17:04;;;;;;;19.08;10.52;;;28.60;86.70;;;;;;5066540;28;20032;-45
2021/12/22 00:19:31;;;;;;;23.35;10.60;;;28.50;86.60;;;;;;5066282;28;20392;-47
2021/12/22 00:21:58;;;;;;;19.52;11.25;;;28.50;86.80;;;;;;5066323;28;20032;-50
2021/12/22 00:24:24;;;;;;;22.45;10.85;;;28.50;86.70;;;;;;5066259;28;20017;-44
2021/12/22 00:26:53;;;;;;;21.42;10.18;;;28.50;86.80;;;;;;5066479;28;20021;-41
2021/12/22 00:29:20;;;;;;;22.63;9.90;;;28.40;86.60;;;;;;5066037;28;20099;-47
2021/12/22 00:31:58;;;;;;;17.80;10.27;;;28.40;86.60;;;;;;5066313;28;20036;-45
2021/12/22 00:34:27;;;;;;;22.52;10.85;;;28.40;86.70;;;;;;5065515;28;20088;-51
2021/12/22 00:36:53;;;;;;;17.75;10.65;;;28.40;86.50;;;;;;5065558;28;20063;-44
2021/12/22 00:39:20;;;;;;;17.60;9.85;;;28.40;86.60;;;;;;5066348;28;20028;-47
2021/12/22 00:41:49;;;;;;;18.63;9.60;;;28.40;86.60;;;;;;5066161;28;20203;-52
2021/12/22 00:44:16;;;;;;;17.33;9.50;;;28.30;86.40;;;;;;5062041;28;20020;-51
2021/12/22 00:46:42;;;;;;;18.45;8.93;;;28.30;86.20;;;;;;5060008;28;20244;-46
2021/12/22 00:49:09;;;;;;;20.90;9.10;;;28.30;86.20;;;;;;5060206;28;20021;-45
2021/12/22 00:51:35;;;;;;;14.93;9.05;;;28.30;86.20;;;;;;5053093;28;20029;-44
2021/12/22 00:54:02;;;;;;;25.38;10.05;;;28.30;86.10;;;;;;5054496;28;20021;-41
2021/12/22 00:56:28;;;;;;;36.40;10.98;;;28.30;86.20;;;;;;5045709;28;20079;-52
2021/12/22 00:58:55;;;;;;;172.63;21.85;;;28.30;85.90;;;;;;5052489;28;20037;-45
2021/12/22 01:01:22;;;;;;;176.18;24.40;;;28.20;86.20;;;;;;5052388;28;20026;-45
2021/12/22 01:03:48;;;;;;;104.05;16.55;;;28.30;86.20;;;;;;5056436;28;20009;-48
2021/12/22 01:06:15;;;;;;;93.70;15.35;;;28.30;86.00;;;;;;5059555;28;20025;-48
2021/12/22 01:08:41;;;;;;;54.58;15.40;;;28.30;85.90;;;;;;5065485;28;20044;-56
2021/12/22 01:11:08;;;;;;;44.78;17.15;;;28.40;85.70;;;;;;5064904;28;20020;-43
2021/12/22 01:13:35;;;;;;;34.90;15.45;;;28.40;85.60;;;;;;5053405;28;20013;-41
2021/12/22 01:16:02;;;;;;;28.20;12.68;;;28.40;85.50;;;;;;5056521;28;20213;-46
2021/12/22 01:18:32;;;;;;;25.58;10.90;;;28.40;85.30;;;;;;5057894;28;20020;-44
2021/12/22 01:23:34;;;;;;;24.63;9.48;;;28.40;85.30;;;;;;5055779;28;20076;-47
2021/12/22 01:26:00;;;;;;;20.45;9.32;;;28.40;85.20;;;;;;5055614;28;20084;-42
2021/12/22 01:28:27;;;;;;;12.23;8.75;;;28.40;85.20;;;;;;5050138;28;20053;-45
2021/12/22 01:31:00;;;;;;;18.63;8.95;;;28.40;85.00;;;;;;5054999;28;20040;-54
2021/12/22 01:33:27;;;;;;;13.70;8.63;;;28.40;84.80;;;;;;5058244;28;20029;-51
2021/12/22 01:35:53;;;;;;;16.30;8.73;;;28.40;84.90;;;;;;5059479;28;20210;-48
2021/12/22 01:38:20;;;;;;;18.17;8.75;;;28.40;84.80;;;;;;5053755;28;20226;-48
2021/12/22 01:40:47;;;;;;;18.63;8.98;;;28.40;84.70;;;;;;5053462;28;20016;-51
2021/12/22 01:43:16;;;;;;;15.65;8.07;;;28.40;84.60;;;;;;5049513;28;20048;-50
2021/12/22 01:51:50;;;;;;;16.23;8.60;;;28.50;84.40;;;;;;5054874;28;20343;-51
2021/12/22 01:54:20;;;;;;;13.73;8.23;;;28.40;84.30;;;;;;5046549;28;20032;-55
2021/12/22 01:56:48;;;;;;;17.55;9.00;;;28.50;84.30;;;;;;5055464;28;20021;-50
2021/12/22 01:59:15;;;;;;;15.52;8.38;;;28.50;84.30;;;;;;5053450;28;20036;-46
2021/12/22 02:01:42;;;;;;;15.65;9.38;;;28.40;84.30;;;;;;5053397;28;20021;-50
2021/12/22 02:04:13;;;;;;;16.30;11.57;;;28.50;84.40;;;;;;5054745;28;20087;-47
2021/12/22 02:06:43;;;;;;;17.63;11.50;;;28.50;84.40;;;;;;5067517;28;20041;-52
2021/12/22 02:09:12;;;;;;;20.20;13.65;;;28.40;84.30;;;;;;5053151;28;20017;-47
2021/12/22 02:11:39;;;;;;;23.35;14.77;;;28.50;84.50;;;;;;5052022;28;20036;-50
2021/12/22 02:14:07;;;;;;;26.10;15.65;;;28.50;84.50;;;;;;5049311;28;20022;-48
2021/12/22 02:16:39;;;;;;;28.35;15.85;;;28.40;84.50;;;;;;5044304;28;20247;-53
2021/12/22 02:19:08;;;;;;;26.17;15.88;;;28.40;84.60;;;;;;5059029;28;20028;-49
2021/12/22 02:21:45;;;;;;;24.42;13.85;;;28.40;84.70;;;;;;5044884;28;20079;-47
2021/12/22 02:24:12;;;;;;;22.35;13.07;;;28.40;84.70;;;;;;5052898;28;20063;-52
2021/12/22 02:26:57;;;;;;;21.48;10.48;;;28.40;84.60;;;;;;5052188;28;20297;-51
2021/12/22 02:29:34;;;;;;;23.23;12.05;;;28.40;84.60;;;;;;5054400;28;20163;-47
2021/12/22 02:32:07;;;;;;;39.45;29.63;;;28.30;84.50;;;;;;5054462;28;20029;-44
2021/12/22 02:34:41;;;;;;;64.07;52.78;;;28.40;84.50;;;;;;5054875;28;20018;-47
2021/12/22 02:37:14;;;;;;;57.58;45.65;;;28.30;84.50;;;;;;5055333;28;20025;-57
2021/12/22 02:39:50;;;;;;;56.13;47.28;;;28.30;84.40;;;;;;5055092;28;20035;-48
2021/12/22 02:42:21;;;;;;;53.00;38.10;;;28.30;84.40;;;;;;5048742;28;20093;-51
2021/12/22 02:44:47;;;;;;;46.92;38.20;;;28.30;84.30;;;;;;5043685;28;20206;-48
2021/12/22 02:47:23;;;;;;;37.50;30.38;;;28.30;84.20;;;;;;5044008;28;20021;-48
2021/12/22 02:49:50;;;;;;;28.50;23.10;;;28.30;84.20;;;;;;5044292;28;20028;-46
2021/12/22 02:52:19;;;;;;;24.73;22.10;;;28.30;84.10;;;;;;5044039;28;20046;-43
2021/12/22 02:54:56;;;;;;;24.92;18.60;;;28.30;84.00;;;;;;5043499;28;20044;-45
2021/12/22 02:57:29;;;;;;;19.27;16.30;;;28.30;84.00;;;;;;5043913;28;20033;-47
2021/12/22 03:02:58;;;;;;;16.92;12.23;;;28.30;83.90;;;;;;5057158;28;20040;-43
2021/12/22 03:05:28;;;;;;;17.10;11.57;;;28.30;84.00;;;;;;5047831;28;20079;-42
2021/12/22 03:07:55;;;;;;;13.85;10.52;;;28.30;83.90;;;;;;5048249;28;20025;-47
2021/12/22 03:10:22;;;;;;;16.52;11.13;;;28.30;83.90;;;;;;5063211;28;20029;-50
2021/12/22 03:12:53;;;;;;;18.25;9.48;;;28.20;83.80;;;;;;5048097;28;20036;-48
2021/12/22 03:15:21;;;;;;;16.00;10.00;;;28.20;83.90;;;;;;5047728;28;20017;-42
2021/12/22 03:17:49;;;;;;;12.38;9.20;;;28.30;83.80;;;;;;5047658;28;20033;-51
2021/12/22 03:20:16;;;;;;;17.15;9.15;;;28.30;83.80;;;;;;5047522;28;20018;-44
2021/12/22 03:22:45;;;;;;;13.32;8.68;;;28.20;83.60;;;;;;5048020;28;20025;-47
2021/12/22 03:25:17;;;;;;;15.10;8.95;;;28.30;83.60;;;;;;5047369;28;20047;-47
2021/12/22 03:27:49;;;;;;;13.48;8.57;;;28.30;83.60;;;;;;5047777;28;20309;-48
2021/12/22 03:30:19;;;;;;;12.98;8.45;;;28.30;83.50;;;;;;5047237;28;20075;-50
2021/12/22 03:32:46;;;;;;;11.07;7.60;;;28.20;83.40;;;;;;5056756;28;20017;-44
2021/12/22 03:35:17;;;;;;;12.73;7.25;;;28.20;83.40;;;;;;5047414;28;20420;-50
2021/12/22 03:37:46;;;;;;;12.93;7.80;;;28.20;83.40;;;;;;5047443;28;20092;-50
2021/12/22 03:40:12;;;;;;;15.80;7.63;;;28.20;83.40;;;;;;5047174;28;20018;-49
2021/12/22 03:42:39;;;;;;;16.17;7.75;;;28.20;83.50;;;;;;5047543;28;20026;-43
2021/12/22 03:45:06;;;;;;;15.98;7.72;;;28.20;83.50;;;;;;5047023;28;20014;-48
2021/12/22 03:47:33;;;;;;;11.57;7.50;;;28.20;83.40;;;;;;5038360;28;20029;-48
2021/12/22 03:50:00;;;;;;;11.93;7.10;;;28.20;83.40;;;;;;5056747;28;20064;-43
2021/12/22 03:52:27;;;;;;;11.43;7.72;;;28.20;83.30;;;;;;5061939;28;20033;-46
2021/12/22 03:54:58;;;;;;;32.13;11.30;;;28.20;83.30;;;;;;5066760;28;20066;-51
2021/12/22 03:57:28;;;;;;;146.30;37.10;;;28.20;83.20;;;;;;5060773;28;20049;-46
2021/12/22 03:59:58;;;;;;;140.10;35.85;;;28.20;83.20;;;;;;5066682;28;20024;-54
2021/12/22 04:02:26;;;;;;;91.72;24.25;;;28.20;83.20;;;;;;5067046;28;20236;-50
2021/12/22 04:04:52;;;;;;;75.05;20.98;;;28.20;83.10;;;;;;5066612;28;20017;-45
2021/12/22 04:07:19;;;;;;;55.22;18.48;;;28.10;83.00;;;;;;5066820;28;20027;-52
2021/12/22 04:09:46;;;;;;;51.05;15.93;;;28.20;83.00;;;;;;5066581;28;20070;-50
2021/12/22 04:12:13;;;;;;;44.10;14.25;;;28.10;82.80;;;;;;5066841;28;20032;-44
2021/12/22 04:14:40;;;;;;;37.40;12.77;;;28.20;82.90;;;;;;5066437;28;20225;-46
2021/12/22 04:17:06;;;;;;;29.48;10.73;;;28.20;82.90;;;;;;5066711;28;20037;-50
2021/12/22 04:19:33;;;;;;;30.65;9.68;;;28.10;82.70;;;;;;5060371;28;20017;-47
2021/12/22 04:22:00;;;;;;;20.92;9.73;;;28.10;82.70;;;;;;5057799;28;20067;-44
2021/12/22 04:24:27;;;;;;;19.80;8.48;;;28.10;82.60;;;;;;5060327;28;20067;-46
2021/12/22 04:26:53;;;;;;;21.30;9.20;;;28.10;82.70;;;;;;5055623;28;20033;-45
2021/12/22 04:29:20;;;;;;;15.95;8.25;;;28.10;82.40;;;;;;5053841;28;20037;-41
2021/12/22 04:31:46;;;;;;;14.45;8.68;;;28.20;82.50;;;;;;5046594;28;20030;-47
2021/12/22 04:34:13;;;;;;;13.73;7.75;;;28.10;82.50;;;;;;5046130;28;20060;-46
2021/12/22 04:36:41;;;;;;;16.65;7.65;;;28.10;82.50;;;;;;5046073;28;20071;-46
2021/12/22 04:39:09;;;;;;;40.72;7.68;;;28.10;82.40;;;;;;5055761;28;20017;-42
2021/12/22 04:41:36;;;;;;;11.23;7.50;;;28.10;82.30;;;;;;5054530;28;20024;-45
2021/12/22 04:44:04;;;;;;;12.15;7.40;;;28.10;82.40;;;;;;5052978;28;20088;-41
2021/12/22 04:46:30;;;;;;;18.10;7.15;;;28.10;82.30;;;;;;5061358;28;20255;-46
2021/12/22 04:48:57;;;;;;;13.63;7.00;;;28.10;82.30;;;;;;5045914;28;20210;-49
2021/12/22 04:51:31;;;;;;;9.80;6.78;;;28.10;82.30;;;;;;5045797;28;20045;-47
2021/12/22 04:54:15;;;;;;;12.25;6.85;;;28.10;82.30;;;;;;5054599;28;20321;-52
2021/12/22 04:56:42;;;;;;;15.93;8.00;;;28.10;82.40;;;;;;5059082;28;20317;-50
2021/12/22 04:59:09;;;;;;;15.07;8.10;;;28.10;82.40;;;;;;5045683;28;20032;-42
2021/12/22 05:01:36;;;;;;;11.38;7.47;;;28.10;82.50;;;;;;5045814;28;20336;-50
2021/12/22 05:04:02;;;;;;;13.05;7.60;;;28.10;82.50;;;;;;5045609;28;20026;-46
2021/12/22 05:06:29;;;;;;;14.13;7.72;;;28.10;82.50;;;;;;5056131;28;20021;-54
2021/12/22 05:08:56;;;;;;;15.32;7.13;;;28.10;82.50;;;;;;5054781;28;20021;-44
2021/12/22 05:11:22;;;;;;;12.45;7.55;;;28.10;82.50;;;;;;5059213;28;20302;-53
2021/12/22 05:13:49;;;;;;;11.13;7.93;;;28.10;82.50;;;;;;5057367;28;20063;-42
2021/12/22 05:16:18;;;;;;;11.70;7.20;;;28.10;82.50;;;;;;5056081;28;20083;-46
2021/12/22 05:21:21;;;;;;;11.77;7.18;;;28.10;82.50;;;;;;5054689;28;20328;-48
2021/12/22 05:23:52;;;;;;;13.13;7.43;;;28.10;82.50;;;;;;5045139;28;20113;-50
2021/12/22 05:26:20;;;;;;;12.02;7.15;;;28.10;82.50;;;;;;5052260;28;20028;-50
2021/12/22 05:28:46;;;;;;;12.93;6.85;;;28.10;82.40;;;;;;5056390;28;20388;-45
2021/12/22 05:31:13;;;;;;;12.35;6.95;;;28.10;82.40;;;;;;5065014;28;20186;-49
2021/12/22 05:33:41;;;;;;;11.05;6.75;;;28.10;82.40;;;;;;5064914;28;20093;-45
2021/12/22 05:36:07;;;;;;;10.15;6.68;;;28.10;82.40;;;;;;5065030;28;20245;-41
2021/12/22 05:38:34;;;;;;;8.90;6.53;;;28.10;82.50;;;;;;5039876;28;20072;-42
2021/12/22 05:41:01;;;;;;;10.88;6.78;;;28.10;82.50;;;;;;5053554;28;20013;-46
2021/12/22 05:43:28;;;;;;;11.05;6.40;;;28.10;82.50;;;;;;5045136;28;20124;-45
2021/12/22 05:45:54;;;;;;;8.90;6.70;;;28.10;82.50;;;;;;5044804;28;20025;-52
2021/12/22 05:48:22;;;;;;;10.93;6.65;;;28.00;82.50;;;;;;5044627;28;20025;-46
2021/12/22 05:50:51;;;;;;;7.55;6.20;;;28.00;82.50;;;;;;5044718;28;20308;-48
2021/12/22 05:53:18;;;;;;;8.48;6.32;;;28.00;82.50;;;;;;5044671;28;20217;-55
2021/12/22 05:55:45;;;;;;;8.85;6.55;;;28.00;82.50;;;;;;5044607;28;20131;-50
2021/12/22 05:58:11;;;;;;;9.57;5.90;;;28.00;82.50;;;;;;5045691;28;20033;-45
2021/12/22 06:00:38;;;;;;;8.18;6.30;;;28.00;82.60;;;;;;5055952;28;20019;-46
2021/12/22 06:03:05;;;;;;;9.48;6.35;;;28.10;82.60;;;;;;5052865;28;20057;-50
2021/12/22 06:05:31;;;;;;;7.93;6.78;;;28.00;82.50;;;;;;5055530;28;20020;-51
2021/12/22 06:07:58;;;;;;;10.25;6.40;;;28.00;82.60;;;;;;5060784;28;20027;-49
2021/12/22 06:10:24;;;;;;;11.77;6.95;;;28.00;82.60;;;;;;5053957;28;20371;-45
2021/12/22 06:12:51;;;;;;;10.60;6.47;;;28.00;82.70;;;;;;5054659;28;20028;-46
2021/12/22 06:15:18;;;;;;;9.00;6.47;;;28.00;82.70;;;;;;5053042;28;20025;-50
2021/12/22 06:17:46;;;;;;;9.18;6.10;;;28.00;82.80;;;;;;5052354;28;20255;-49
2021/12/22 06:20:13;;;;;;;8.95;6.38;;;28.00;82.90;;;;;;5054094;28;20029;-47
2021/12/22 06:22:39;;;;;;;8.10;6.63;;;28.00;83.10;;;;;;5053473;28;20092;-46
2021/12/22 06:25:07;;;;;;;7.70;6.35;;;28.00;83.00;;;;;;5051963;28;20027;-44
2021/12/22 06:27:33;;;;;;;8.98;6.55;;;28.00;83.00;;;;;;5054360;28;20209;-49
2021/12/22 06:30:00;;;;;;;7.75;6.40;;;28.00;83.00;;;;;;5053032;28;20383;-52
2021/12/22 06:32:26;;;;;;;9.32;6.25;;;28.00;83.10;;;;;;5051553;28;20275;-46
2021/12/22 06:34:53;;;;;;;8.13;6.55;;;27.90;83.00;;;;;;5061235;28;20059;-49
2021/12/22 06:37:20;;;;;;;8.73;6.40;;;28.00;83.20;;;;;;5051424;28;20234;-48
2021/12/22 06:39:46;;;;;;;7.53;6.70;;;27.90;83.10;;;;;;5063752;28;20017;-56
2021/12/22 06:42:13;;;;;;;10.40;6.93;;;27.90;83.10;;;;;;5064056;28;20029;-48
2021/12/22 06:44:39;;;;;;;9.18;7.10;;;28.00;83.30;;;;;;5063936;28;20201;-46
2021/12/22 06:47:07;;;;;;;11.25;7.13;;;27.90;83.20;;;;;;5063956;28;20032;-44
2021/12/22 06:49:34;;;;;;;9.27;6.53;;;27.90;83.30;;;;;;5063748;28;20317;-46
2021/12/22 06:52:00;;;;;;;7.22;6.10;;;27.90;83.80;;;;;;5063959;28;20067;-43
2021/12/22 06:54:27;;;;;;;8.82;6.35;;;27.90;83.30;;;;;;5063579;28;20244;-47
2021/12/22 06:56:53;;;;;;;7.82;6.63;;;27.90;83.30;;;;;;5063776;28;20217;-49
2021/12/22 06:59:20;;;;;;;7.78;6.97;;;27.90;83.30;;;;;;5063520;28;20021;-46
2021/12/22 07:01:47;;;;;;;8.18;6.75;;;27.90;83.30;;;;;;5063685;28;20029;-50
2021/12/22 07:04:14;;;;;;;7.35;6.40;;;27.90;83.40;;;;;;5063567;28;20020;-46
2021/12/22 07:06:41;;;;;;;7.78;6.22;;;27.90;83.40;;;;;;5063826;28;20028;-51
2021/12/22 07:09:08;;;;;;;11.35;6.43;;;27.90;83.40;;;;;;5050876;28;20029;-48
2021/12/22 07:11:37;;;;;;;9.90;6.38;;;27.90;83.50;;;;;;5063848;28;20025;-52
2021/12/22 07:14:06;;;;;;;9.52;6.40;;;27.80;83.40;;;;;;5063447;28;20021;-46
2021/12/22 07:16:33;;;;;;;7.22;6.53;;;27.90;83.60;;;;;;5063518;28;20088;-47
2021/12/22 07:18:59;;;;;;;9.85;7.05;;;27.80;83.60;;;;;;5063638;28;20043;-47
2021/12/22 07:21:26;;;;;;;7.93;6.53;;;27.80;83.60;;;;;;5063513;28;20048;-50
2021/12/22 07:23:53;;;;;;;7.18;6.30;;;27.80;83.60;;;;;;5063413;28;20028;-44
2021/12/22 07:26:19;;;;;;;9.38;6.25;;;27.80;83.60;;;;;;5063407;28;20084;-50
2021/12/22 07:28:48;;;;;;;7.10;6.25;;;27.80;83.70;;;;;;5063144;28;20072;-48
2021/12/22 07:31:16;;;;;;;9.05;7.38;;;27.80;83.70;;;;;;5063269;28;20033;-44
2021/12/22 07:33:56;;;;;;;10.15;7.28;;;27.80;83.70;;;;;;5063358;28;20039;-49
2021/12/22 07:36:23;;;;;;;8.32;6.65;;;27.80;83.80;;;;;;5063323;28;20029;-46
2021/12/22 07:39:00;;;;;;;7.90;6.35;;;27.80;83.80;;;;;;5063069;28;20020;-44
2021/12/22 07:41:29;;;;;;;7.43;6.03;;;27.70;83.70;;;;;;5063238;28;20033;-44
2021/12/22 07:43:55;;;;;;;7.00;6.40;;;27.70;83.70;;;;;;5063177;28;20013;-50
2021/12/22 07:46:22;;;;;;;7.60;6.80;;;27.70;84.20;;;;;;5067105;28;20044;-51
2021/12/22 07:48:49;;;;;;;11.57;7.38;;;27.70;83.70;;;;;;5067061;28;20031;-51
2021/12/22 07:51:16;;;;;;;9.23;6.28;;;27.70;83.70;;;;;;5066826;28;20078;-47
2021/12/22 07:53:43;;;;;;;8.88;6.25;;;27.70;83.70;;;;;;5067014;28;20033;-45
2021/12/22 07:56:09;;;;;;;10.25;7.15;;;27.70;83.80;;;;;;5066886;28;20020;-50
2021/12/22 07:58:36;;;;;;;9.88;6.60;;;27.70;83.80;;;;;;5066774;28;20216;-52
2021/12/22 08:01:02;;;;;;;9.23;6.43;;;27.70;83.80;;;;;;5067014;28;20013;-48
2021/12/22 08:03:29;;;;;;;7.28;6.35;;;27.70;83.80;;;;;;5066674;28;20017;-49
2021/12/22 08:05:56;;;;;;;9.75;6.78;;;27.70;83.80;;;;;;5066676;28;20009;-55
2021/12/22 08:08:22;;;;;;;11.50;7.20;;;27.70;83.90;;;;;;5066492;28;20102;-48
2021/12/22 08:10:49;;;;;;;7.68;6.28;;;27.70;83.90;;;;;;5066606;28;20022;-48
2021/12/22 08:13:16;;;;;;;7.97;6.65;;;27.70;84.00;;;;;;5066484;28;20091;-49
2021/12/22 08:15:44;;;;;;;8.30;6.45;;;27.70;84.10;;;;;;5066295;28;20301;-52
2021/12/22 08:18:11;;;;;;;9.15;6.95;;;27.70;84.00;;;;;;5066814;28;20059;-44
2021/12/22 08:20:37;;;;;;;8.95;6.68;;;27.70;84.00;;;;;;5066374;28;20309;-46
2021/12/22 08:23:04;;;;;;;9.02;6.57;;;27.70;84.10;;;;;;5066703;28;20088;-47
2021/12/22 08:25:31;;;;;;;7.88;6.38;;;27.60;84.00;;;;;;5066407;28;20021;-49
2021/12/22 08:27:57;;;;;;;7.90;6.35;;;27.60;84.00;;;;;;5066525;28;20215;-49
2021/12/22 08:30:24;;;;;;;13.30;7.15;;;27.60;84.10;;;;;;5066084;28;20198;-45
2021/12/22 08:32:50;;;;;;;10.85;7.00;;;27.60;84.10;;;;;;5066534;28;20031;-44
2021/12/22 08:35:20;;;;;;;7.75;6.38;;;27.60;84.10;;;;;;5066195;28;20080;-52
2021/12/22 08:40:33;;;;;;;8.85;6.65;;;27.60;84.30;;;;;;5045087;28;20070;-48
2021/12/22 08:42:59;;;;;;;7.60;6.80;;;27.60;84.30;;;;;;5066311;28;20040;-44
2021/12/22 08:45:26;;;;;;;7.85;6.28;;;27.60;84.30;;;;;;5066061;28;20075;-48
2021/12/22 08:47:53;;;;;;;9.93;7.10;;;27.60;84.40;;;;;;5066306;28;20029;-57
2021/12/22 08:50:20;;;;;;;8.18;6.63;;;27.60;84.50;;;;;;5065680;28;20052;-43
2021/12/22 08:52:47;;;;;;;9.20;6.72;;;27.60;84.50;;;;;;5066135;28;20028;-48
2021/12/22 08:55:15;;;;;;;10.52;6.90;;;27.50;84.50;;;;;;5065591;28;20017;-51
2021/12/22 08:57:42;;;;;;;7.50;6.70;;;27.60;84.60;;;;;;5065023;28;20044;-51
2021/12/22 09:00:11;;;;;;;7.97;6.30;;;27.50;84.50;;;;;;5065938;28;20084;-49
2021/12/22 09:02:39;;;;;;;7.47;6.55;;;27.50;84.60;;;;;;5065918;28;20081;-43
2021/12/22 09:05:06;;;;;;;8.18;6.50;;;27.50;84.60;;;;;;5065367;28;20365;-51
2021/12/22 09:07:33;;;;;;;9.15;6.25;;;27.50;84.60;;;;;;5066021;28;20032;-44
2021/12/22 09:09:59;;;;;;;9.57;6.57;;;27.50;84.60;;;;;;5065405;28;20020;-50
2021/12/22 09:12:27;;;;;;;8.73;6.65;;;27.50;84.70;;;;;;5065675;28;20029;-49
2021/12/22 09:14:54;;;;;;;11.85;6.53;;;27.50;84.70;;;;;;5065268;28;20025;-45
2021/12/22 09:17:21;;;;;;;8.80;6.80;;;27.50;84.70;;;;;;5065514;28;20260;-52
2021/12/22 09:19:48;;;;;;;8.70;7.25;;;27.50;84.80;;;;;;5065052;28;20032;-50
2021/12/22 09:22:16;;;;;;;9.10;6.57;;;27.50;84.80;;;;;;5065406;28;20035;-44
2021/12/22 09:24:42;;;;;;;8.57;6.50;;;27.50;84.80;;;;;;5065215;28;20024;-49
2021/12/22 09:27:09;;;;;;;8.88;6.75;;;27.50;84.80;;;;;;5065305;28;20040;-45
2021/12/22 09:29:36;;;;;;;8.27;6.82;;;27.50;84.90;;;;;;5064947;28;20087;-51
2021/12/22 09:32:04;;;;;;;9.48;6.88;;;27.50;84.90;;;;;;5064979;28;20033;-51
2021/12/22 09:34:30;;;;;;;9.65;6.72;;;27.50;84.90;;;;;;5064892;28;20028;-43
2021/12/22 09:36:57;;;;;;;9.68;6.28;;;27.50;84.90;;;;;;5065112;28;20025;-47
2021/12/22 09:39:24;;;;;;;7.68;6.53;;;27.50;84.90;;;;;;5064852;28;20080;-46
2021/12/22 09:41:51;;;;;;;7.88;6.35;;;27.50;85.00;;;;;;5064863;28;20178;-44
2021/12/22 09:44:18;;;;;;;10.95;7.03;;;27.50;85.00;;;;;;5064739;28;20029;-47
2021/12/22 09:46:48;;;;;;;10.20;6.45;;;27.40;84.90;;;;;;5065005;28;20040;-48
2021/12/22 09:54:50;;;;;;;9.77;7.03;;;27.40;84.90;;;;;;5064717;28;20108;-47
2021/12/22 09:57:18;;;;;;;7.10;6.40;;;27.40;84.90;;;;;;5064856;28;20327;-54
2021/12/22 09:59:46;;;;;;;11.15;6.30;;;27.40;84.90;;;;;;5064342;28;20052;-56
2021/12/22 10:02:13;;;;;;;8.13;6.32;;;27.40;84.90;;;;;;5064631;28;20044;-52
2021/12/22 10:04:40;;;;;;;9.88;6.55;;;27.40;84.90;;;;;;5064687;28;20209;-43
2021/12/22 10:07:08;;;;;;;9.93;5.95;;;27.40;84.90;;;;;;5064392;28;20024;-42
2021/12/22 10:09:44;;;;;;;8.32;6.07;;;27.40;84.90;;;;;;5064210;28;20029;-50
2021/12/22 10:12:22;;;;;;;7.53;6.40;;;27.40;84.90;;;;;;5064470;28;20067;-52
2021/12/22 10:14:58;;;;;;;9.25;6.93;;;27.40;85.00;;;;;;5064271;28;20092;-50
2021/12/22 10:17:35;;;;;;;7.15;6.22;;;27.40;85.00;;;;;;5064528;28;20024;-43
2021/12/22 10:20:22;;;;;;;10.00;6.10;;;27.30;84.90;;;;;;5063974;28;20044;-48
2021/12/22 10:22:51;;;;;;;7.80;6.80;;;27.30;84.90;;;;;;5064512;28;20021;-48
2021/12/22 10:25:22;;;;;;;12.35;6.50;;;27.30;84.80;;;;;;5064068;28;20075;-50
2021/12/22 10:28:09;;;;;;;7.63;6.30;;;27.30;84.80;;;;;;5064253;28;20317;-45
2021/12/22 10:30:41;;;;;;;9.48;6.65;;;27.30;84.80;;;;;;5063867;28;20032;-48
2021/12/22 10:33:10;;;;;;;;;;;27.30;84.80;;;;;;5064773;28;20364;-51
2021/12/22 10:35:39;;;;;;;10.52;6.55;;;27.30;84.80;;;;;;5063765;28;19909;-48
2021/12/22 10:38:08;;;;;;;12.00;6.90;;;27.30;84.90;;;;;;5064244;28;20036;-46
2021/12/22 10:40:38;;;;;;;7.93;6.60;;;27.30;84.90;;;;;;5063900;28;20021;-47
2021/12/22 10:43:06;;;;;;;7.15;6.30;;;27.30;84.90;;;;;;5064165;28;20025;-47
2021/12/22 10:45:35;;;;;;;9.32;6.30;;;27.30;84.80;;;;;;5063914;28;20020;-46
2021/12/22 10:50:59;;;;;;;8.43;6.43;;;27.30;84.80;;;;;;5063922;28;20019;-45
2021/12/22 10:53:26;;;;;;;7.70;6.50;;;27.20;84.70;;;;;;5063549;28;20036;-46
2021/12/22 10:55:56;;;;;;;8.38;6.63;;;27.20;84.60;;;;;;5063702;28;20025;-45
2021/12/22 10:58:25;;;;;;;7.80;6.47;;;27.20;84.50;;;;;;5045818;28;20325;-50
2021/12/22 11:01:07;;;;;;;8.07;7.28;;;27.20;84.50;;;;;;5063487;28;20073;-43
2021/12/22 11:03:39;;;;;;;10.07;7.53;;;27.20;84.50;;;;;;5063596;28;20052;-51
2021/12/22 11:06:17;;;;;;;7.68;6.82;;;27.20;84.40;;;;;;5063354;28;20017;-48
2021/12/22 11:09:10;;;;;;;9.30;7.05;;;27.20;84.40;;;;;;5063496;28;20029;-50
2021/12/22 11:11:39;;;;;;;9.27;6.57;;;27.20;84.40;;;;;;5063688;28;20029;-49
2021/12/22 11:14:23;;;;;;;9.68;7.20;;;27.20;84.40;;;;;;5063312;28;20074;-48
2021/12/22 11:16:50;;;;;;;8.95;6.65;;;27.20;84.40;;;;;;5063246;28;20033;-50
2021/12/22 11:19:16;;;;;;;10.93;6.55;;;27.20;84.40;;;;;;5064076;28;20212;-49
2021/12/22 11:22:00;;;;;;;9.55;6.72;;;27.20;84.40;;;;;;5067680;28;20021;-46
2021/12/22 11:24:28;;;;;;;7.40;6.35;;;27.20;84.30;;;;;;5067368;28;20021;-46
2021/12/22 11:26:56;;;;;;;9.98;6.80;;;27.20;84.40;;;;;;5067335;28;20067;-52
2021/12/22 11:29:23;;;;;;;8.18;6.30;;;27.20;84.40;;;;;;5067052;28;20049;-53
2021/12/22 11:31:51;;;;;;;10.98;7.18;;;27.20;84.40;;;;;;5067236;28;20033;-47
2021/12/22 11:34:19;;;;;;;12.50;7.45;;;27.20;84.50;;;;;;5060535;28;20108;-51
2021/12/22 11:36:49;;;;;;;12.30;7.70;;;27.20;84.50;;;;;;5066750;28;20021;-47
2021/12/22 11:39:15;;;;;;;10.65;7.03;;;27.20;84.50;;;;;;5049562;28;20088;-49
2021/12/22 11:41:55;;;;;;;10.23;7.65;;;27.20;84.50;;;;;;5047233;28;20030;-47
2021/12/22 11:44:27;;;;;;;95.85;12.00;;;27.20;84.60;;;;;;5046963;28;20018;-54
2021/12/22 11:46:56;;;;;;;22.13;8.60;;;27.20;84.60;;;;;;5047218;28;20093;-54
2021/12/22 11:49:24;;;;;;;28.50;9.15;;;27.20;84.60;;;;;;5046861;28;20029;-53
2021/12/22 11:51:51;;;;;;;33.67;9.82;;;27.20;84.70;;;;;;5046876;28;20029;-50
2021/12/22 11:54:24;;;;;;;32.35;9.75;;;27.20;84.70;;;;;;5046988;28;20021;-53
2021/12/22 11:56:52;;;;;;;29.20;9.02;;;27.20;84.70;;;;;;5047036;28;20072;-56
2021/12/22 11:59:38;;;;;;;31.60;9.40;;;27.20;84.80;;;;;;5056858;28;20333;-50
2021/12/22 12:02:25;;;;;;;27.30;8.77;;;27.20;84.80;;;;;;5055732;28;20041;-47
2021/12/22 12:05:11;;;;;;;34.35;9.73;;;27.20;84.90;;;;;;5046796;28;20088;-48
2021/12/22 12:07:54;;;;;;;26.92;9.05;;;27.30;85.00;;;;;;5047201;28;20026;-49
2021/12/22 12:10:40;;;;;;;23.90;8.90;;;27.30;85.10;;;;;;5059763;28;20016;-48
2021/12/22 12:13:26;;;;;;;27.92;9.55;;;27.30;85.10;;;;;;5066977;28;20092;-48
2021/12/22 12:22:05;;;;;;;21.45;8.20;;;27.30;85.10;;;;;;5066451;28;20028;-49
2021/12/22 12:24:31;;;;;;;22.70;8.00;;;27.30;85.10;;;;;;5066321;28;20017;-52
2021/12/22 12:27:00;;;;;;;17.30;8.43;;;27.30;85.10;;;;;;5066533;28;20024;-52
2021/12/22 12:30:00;;;;;;;17.88;8.18;;;27.30;85.10;;;;;;5066282;28;20124;-50
2021/12/22 12:32:39;;;;;;;14.75;7.85;;;27.30;85.10;;;;;;5065318;28;20052;-48
2021/12/22 12:35:23;;;;;;;16.50;7.55;;;27.40;85.10;;;;;;5066458;28;20179;-51
2021/12/22 12:38:24;;;;;;;20.65;8.68;;;27.40;85.20;;;;;;5066352;28;20024;-50
2021/12/22 12:41:01;;;;;;;12.73;8.15;;;27.40;85.20;;;;;;5058369;28;20029;-52
2021/12/22 12:43:44;;;;;;;13.13;7.93;;;27.40;85.20;;;;;;5066044;28;20021;-50
2021/12/22 12:46:35;;;;;;;16.42;7.55;;;27.40;85.30;;;;;;5066034;28;20124;-51
2021/12/22 12:49:05;;;;;;;14.25;7.30;;;27.40;85.40;;;;;;5065825;28;20028;-50
2021/12/22 12:51:49;;;;;;;11.65;7.43;;;27.40;85.40;;;;;;5065837;28;20048;-46
2021/12/22 12:54:21;;;;;;;13.45;7.30;;;27.40;85.50;;;;;;5065745;28;20254;-47
2021/12/22 12:56:57;;;;;;;14.30;7.40;;;27.50;85.70;;;;;;5066045;28;20347;-49
2021/12/22 12:59:40;;;;;;;14.90;7.50;;;27.50;85.80;;;;;;5065928;28;20029;-43
2021/12/22 13:02:20;;;;;;;11.02;7.22;;;27.50;85.90;;;;;;5065384;28;20021;-47
2021/12/22 13:04:47;;;;;;;12.00;7.53;;;27.50;86.10;;;;;;5065484;28;20012;-49
2021/12/22 13:07:20;;;;;;;10.88;7.55;;;27.50;86.20;;;;;;5064451;28;20021;-46
2021/12/22 13:09:50;;;;;;;13.88;7.90;;;27.60;86.30;;;;;;5065540;28;20013;-52
2021/12/22 13:17:49;;;;;;;15.20;7.82;;;27.60;86.40;;;;;;5065468;28;20067;-51
2021/12/22 13:20:19;;;;;;;11.50;7.85;;;27.60;86.60;;;;;;5065281;28;20374;-52
2021/12/22 13:22:48;;;;;;;13.95;7.55;;;27.70;86.70;;;;;;5063326;28;20102;-52
2021/12/22 13:25:30;;;;;;;11.70;7.72;;;27.70;86.80;;;;;;5045281;28;20088;-50
2021/12/22 13:28:01;;;;;;;12.85;8.07;;;27.70;86.80;;;;;;5048810;28;20031;-45